Columbia Regional Airport
KCOU : now visible

Airfield :











YOU CAN JOIN US ON...

 
LOGIN :

Register | Disclaimer

   EN    FR    IT 

 









Legend :    VFR   Marginal VFR   IFR   Intensive IFR   Very Intensive IFR
Visi :
Ceiling :
>= 8 km
>= 3000ft
5 to 8 km
1000 to 3000 ft
1500m to 5 km
500 to 1000 ft
800 to 1500m
200 to 500 ft
< 800m
< 200 ft
Symbols :   Thunderstorms  Fog  Heavy snow  Heavy precipitations  Wind > 20 kt






- Airport Elevation : 889 ft
- IATA code : COU


KCOU - Columbia Regional

CURRENT METAR :
  • 062354Z 19010KT 10SM OVC055 22/13 A2988 RMK AO2 SLP115 T02170133 10228 20183 55013

EXPIRED METARs :
  • 062254Z 18011KT 10SM OVC048 22/13 A2987 RMK AO2 SLP112 T02220133
  • 062154Z 18012KT 10SM FEW036 OVC046 22/14 A2989 RMK AO2 SLP119 T02170139

TAF KCOU
Valid from the 07 at 00:00 until the 08 at 00:00 UTC


062320Z 0700/0724 19010KT P6SM OVC040
FM071100 21008KT P6SM BKN025
FM071400 22010KT P6SM BKN012
FM072000 23012KT P6SM SCT030



MET'MAP, your aeronautical weather chart ! - Copyright ORBIFLY December 2007 - Disclaimer

ORBIFLY MET'MAP TEAM :

Programming & Development : Alexandra Zaïnal
Concept & original design : Baudouin d'Aumeries
Assistance for programming : Marc-Olivier Méhu
Technical & hardware support : Manuel Goepfert

Contact : metmap@orbifly.com




SOURCES & CREDITS :

   NOAA       Earth
Advisory